Time;durP1;ratioP1;P1;durP2;ratioP2;P2;SDS_P1;SDS_P2;PMS_P1;PMS_P2;Temp;Humidity;BMP_temperature;BMP_pressure;BME280_temperature;BME280_humidity;BME280_pressure;Samples;Min_cycle;Max_cycle;Signal;HPM_P1;HPM_P2
2021/04/17 00:01:47;;;;;;;6.47;2.13;;;4.10;99.90;;;;;;5065999;28;20040;-58
2021/04/17 00:04:13;;;;;;;3.47;1.40;;;4.10;99.90;;;;;;5066124;28;20744;-58
2021/04/17 00:06:40;;;;;;;3.20;1.67;;;4.10;99.00;;;;;;5070965;28;20032;-52
2021/04/17 00:09:14;;;;;;;5.78;2.38;;;4.10;99.30;;;;;;5087146;28;20040;-58
2021/04/17 00:11:41;;;;;;;4.35;2.40;;;4.00;99.90;;;;;;5089416;28;20051;-56
2021/04/17 00:14:13;;;;;;;6.07;2.58;;;4.00;99.90;;;;;;5091086;28;20119;-60
2021/04/17 00:16:40;;;;;;;6.72;1.45;;;4.00;99.90;;;;;;5089740;28;20048;-60
2021/04/17 00:19:05;;;;;;;4.28;1.88;;;3.90;97.90;;;;;;5085844;28;20044;-60
2021/04/17 00:21:32;;;;;;;7.07;2.25;;;4.00;95.80;;;;;;5088921;28;20369;-55
2021/04/17 00:23:58;;;;;;;3.60;2.42;;;3.90;99.90;;;;;;5090012;28;20052;-58
2021/04/17 00:26:24;;;;;;;7.75;2.72;;;3.90;99.90;;;;;;5090768;28;20044;-52
2021/04/17 00:28:50;;;;;;;6.32;2.30;;;3.90;99.90;;;;;;5089867;28;20153;-58
2021/04/17 00:31:16;;;;;;;4.40;2.63;;;3.80;99.80;;;;;;5088181;28;20040;-55
2021/04/17 00:33:41;;;;;;;6.30;2.28;;;3.80;99.90;;;;;;5089786;28;20066;-58
2021/04/17 00:36:07;;;;;;;;;;;3.80;99.90;;;;;;5089808;28;20551;-59
2021/04/17 00:38:33;;;;;;;8.80;2.00;;;3.80;99.90;;;;;;5089454;28;19969;-58
2021/04/17 00:40:59;;;;;;;;;;;3.70;99.80;;;;;;5089260;28;20036;-53
2021/04/17 00:43:25;;;;;;;4.50;2.15;;;3.60;99.90;;;;;;5088725;28;20429;-54
2021/04/17 00:45:52;;;;;;;5.65;2.60;;;3.60;99.90;;;;;;5089539;28;20035;-53
2021/04/17 00:48:17;;;;;;;5.65;2.47;;;3.60;99.90;;;;;;5089486;28;20059;-57
2021/04/17 00:50:43;;;;;;;7.07;2.67;;;3.70;99.90;;;;;;5082576;28;20028;-53
2021/04/17 00:53:09;;;;;;;;;;;3.70;99.90;;;;;;5089311;28;20036;-56
2021/04/17 00:55:36;;;;;;;4.78;1.67;;;3.70;99.30;;;;;;5088954;28;19916;-58
2021/04/17 00:58:03;;;;;;;5.20;1.90;;;3.70;99.70;;;;;;5069938;28;20131;-57
2021/04/17 01:00:29;;;;;;;5.88;1.73;;;3.70;99.60;;;;;;5069198;28;20045;-58
2021/04/17 01:03:22;;;;;;;4.88;1.50;;;3.70;98.60;;;;;;5069485;28;20047;-58
2021/04/17 01:05:53;;;;;;;2.90;1.38;;;3.70;99.20;;;;;;5069694;28;20094;-53
2021/04/17 01:08:27;;;;;;;4.95;2.17;;;3.60;99.50;;;;;;5069716;28;20044;-56
2021/04/17 01:10:56;;;;;;;4.75;1.40;;;3.60;99.60;;;;;;5069297;28;20037;-58
2021/04/17 01:13:23;;;;;;;4.47;1.65;;;3.60;99.60;;;;;;5069586;28;20041;-58
2021/04/17 01:15:50;;;;;;;3.58;1.80;;;3.50;99.20;;;;;;5069104;28;20106;-55
2021/04/17 01:18:16;;;;;;;3.05;1.50;;;3.50;99.90;;;;;;5069162;28;20094;-57
2021/04/17 01:20:52;;;;;;;2.95;1.60;;;3.50;99.90;;;;;;5082560;28;20462;-58
2021/04/17 01:23:37;;;;;;;2.08;1.45;;;3.40;99.90;;;;;;5089276;28;20079;-58
2021/04/17 01:26:18;;;;;;;6.40;2.30;;;3.30;99.90;;;;;;5089710;28;20044;-54
2021/04/17 01:28:50;;;;;;;6.90;1.90;;;3.20;99.90;;;;;;5089148;28;20109;-55
2021/04/17 01:31:18;;;;;;;5.80;1.70;;;3.20;99.90;;;;;;5089208;28;20068;-56
2021/04/17 01:33:50;;;;;;;4.47;1.65;;;3.10;99.90;;;;;;5088545;28;20071;-56
2021/04/17 01:36:17;;;;;;;4.95;1.65;;;3.10;99.90;;;;;;5089405;28;20048;-54
2021/04/17 01:38:45;;;;;;;8.27;1.73;;;3.10;99.90;;;;;;5089352;28;20044;-56
2021/04/17 01:41:17;;;;;;;4.90;1.38;;;3.10;99.90;;;;;;5088568;28;20127;-55
2021/04/17 01:43:48;;;;;;;5.63;1.60;;;3.10;99.90;;;;;;5089628;28;20040;-56
2021/04/17 01:46:19;;;;;;;8.00;1.88;;;3.00;99.90;;;;;;5084234;28;20115;-58
2021/04/17 01:48:46;;;;;;;3.35;1.40;;;3.00;99.90;;;;;;5089209;28;20112;-60
2021/04/17 01:51:13;;;;;;;7.28;2.03;;;2.90;99.90;;;;;;5087479;28;20066;-58
2021/04/17 01:53:41;;;;;;;7.07;2.00;;;2.90;99.90;;;;;;5088037;28;20039;-59
2021/04/17 01:56:09;;;;;;;3.38;1.90;;;2.80;99.90;;;;;;5083696;28;20044;-56
2021/04/17 01:58:38;;;;;;;3.55;1.38;;;2.90;99.90;;;;;;5068739;28;20153;-56
2021/04/17 02:01:04;;;;;;;3.08;2.10;;;2.80;99.90;;;;;;5067757;28;20131;-57
2021/04/17 02:03:30;;;;;;;3.45;1.77;;;2.70;99.90;;;;;;5081269;28;20047;-55
2021/04/17 02:05:57;;;;;;;3.83;2.10;;;2.60;99.90;;;;;;5088838;28;20086;-58
2021/04/17 02:08:22;;;;;;;7.90;2.05;;;2.50;99.90;;;;;;5087728;28;20044;-55
2021/04/17 02:10:50;;;;;;;2.95;1.38;;;2.50;99.90;;;;;;5082666;28;20032;-56
2021/04/17 02:13:16;;;;;;;3.90;1.73;;;2.40;99.90;;;;;;5088706;28;20044;-55
2021/04/17 02:15:42;;;;;;;4.25;1.90;;;2.40;99.90;;;;;;5087989;28;20036;-58
2021/04/17 02:18:15;;;;;;;3.55;2.20;;;2.40;99.90;;;;;;5086216;28;20040;-53
2021/04/17 02:20:47;;;;;;;7.85;2.72;;;2.30;99.90;;;;;;5087280;28;20040;-55
2021/04/17 02:23:14;;;;;;;4.15;1.90;;;2.30;99.90;;;;;;5087508;28;20040;-58
2021/04/17 02:25:40;;;;;;;7.65;2.20;;;2.20;99.90;;;;;;5088443;28;20068;-52
2021/04/17 02:28:06;;;;;;;7.32;2.40;;;2.10;99.90;;;;;;5088123;28;20071;-51
2021/04/17 02:30:36;;;;;;;4.97;2.42;;;2.00;99.90;;;;;;5086794;28;20043;-55
2021/04/17 02:33:02;;;;;;;4.85;2.47;;;2.00;99.90;;;;;;5088350;28;20061;-52
2021/04/17 02:35:28;;;;;;;4.88;2.40;;;1.90;99.90;;;;;;5087277;28;20392;-55
2021/04/17 02:37:54;;;;;;;5.32;2.00;;;1.90;99.90;;;;;;5087892;28;20039;-55
2021/04/17 02:40:19;;;;;;;3.42;1.98;;;1.90;99.90;;;;;;5088301;28;20520;-53
2021/04/17 02:42:45;;;;;;;8.95;2.55;;;1.90;99.90;;;;;;5088017;28;20040;-56
2021/04/17 02:45:11;;;;;;;6.25;2.85;;;1.90;99.90;;;;;;5087337;28;20434;-54
2021/04/17 02:47:37;;;;;;;8.68;2.65;;;1.80;99.90;;;;;;5088244;28;20409;-49
2021/04/17 02:50:04;;;;;;;5.00;2.40;;;1.80;99.90;;;;;;5086888;28;20032;-51
2021/04/17 02:52:29;;;;;;;5.20;2.38;;;1.80;99.90;;;;;;5087273;28;20036;-51
2021/04/17 02:54:55;;;;;;;4.43;2.42;;;1.80;99.90;;;;;;5088208;28;20044;-52
2021/04/17 02:57:21;;;;;;;5.05;2.58;;;1.70;99.90;;;;;;5072092;28;20082;-55
2021/04/17 02:59:46;;;;;;;9.20;3.13;;;1.70;99.90;;;;;;5067438;28;20476;-53
2021/04/17 03:02:14;;;;;;;10.93;2.60;;;1.60;99.90;;;;;;5067466;28;20488;-56
2021/04/17 03:04:39;;;;;;;4.93;2.33;;;1.50;99.90;;;;;;5066313;28;20048;-50
2021/04/17 03:07:05;;;;;;;6.15;2.65;;;1.50;99.90;;;;;;5067487;28;20037;-52
2021/04/17 03:09:30;;;;;;;10.93;2.88;;;1.50;99.90;;;;;;5067911;28;20029;-54
2021/04/17 03:11:56;;;;;;;10.27;2.38;;;1.50;99.90;;;;;;5067569;28;20083;-52
2021/04/17 03:14:22;;;;;;;5.45;3.08;;;1.60;99.90;;;;;;5067609;28;20126;-53
2021/04/17 03:16:47;;;;;;;9.70;2.67;;;1.60;99.90;;;;;;5067338;28;20147;-55
2021/04/17 03:19:13;;;;;;;6.43;3.00;;;1.60;99.90;;;;;;5068154;28;20036;-56
2021/04/17 03:21:38;;;;;;;6.82;2.88;;;1.50;99.90;;;;;;5087233;28;20043;-51
2021/04/17 03:24:04;;;;;;;5.18;2.92;;;1.60;99.90;;;;;;5088019;28;20500;-53
2021/04/17 03:26:30;;;;;;;6.57;2.50;;;1.50;99.90;;;;;;5087475;28;20069;-49
2021/04/17 03:28:56;;;;;;;6.82;2.90;;;1.60;99.90;;;;;;5087217;28;20063;-55
2021/04/17 03:31:21;;;;;;;8.65;3.10;;;1.60;99.90;;;;;;5087434;28;20044;-52
2021/04/17 03:33:47;;;;;;;5.00;2.50;;;1.60;99.90;;;;;;5087349;28;20048;-51
2021/04/17 03:36:13;;;;;;;9.20;3.08;;;1.50;99.90;;;;;;5088118;28;20040;-54
2021/04/17 03:38:39;;;;;;;6.68;2.70;;;1.30;99.90;;;;;;5087915;28;20143;-53
2021/04/17 03:41:04;;;;;;;10.43;2.88;;;1.20;99.90;;;;;;5088740;28;20114;-55
2021/04/17 03:43:30;;;;;;;7.30;2.65;;;1.20;99.90;;;;;;5090823;28;20040;-51
2021/04/17 03:45:56;;;;;;;6.00;2.70;;;1.30;99.90;;;;;;5091015;28;20550;-55
2021/04/17 03:48:21;;;;;;;9.25;2.40;;;1.30;99.90;;;;;;5091012;28;20093;-56
2021/04/17 03:50:47;;;;;;;6.80;2.50;;;1.20;99.90;;;;;;5089477;28;20627;-54
2021/04/17 03:53:13;;;;;;;4.88;2.42;;;1.10;99.90;;;;;;5090380;28;20527;-54
2021/04/17 03:55:39;;;;;;;4.00;2.22;;;1.10;99.90;;;;;;5090216;28;20036;-53
2021/04/17 03:58:04;;;;;;;5.63;2.60;;;1.10;99.90;;;;;;5090958;28;20040;-58
2021/04/17 04:00:30;;;;;;;7.55;2.78;;;1.00;99.90;;;;;;5091105;28;20040;-57
2021/04/17 04:02:56;;;;;;;8.07;2.55;;;0.90;99.90;;;;;;5088065;28;20035;-53
2021/04/17 04:05:22;;;;;;;5.25;2.88;;;0.90;99.90;;;;;;5091142;28;20048;-54
2021/04/17 04:07:47;;;;;;;6.43;2.70;;;0.90;99.90;;;;;;5091166;28;20040;-54
2021/04/17 04:10:14;;;;;;;4.65;2.80;;;0.90;99.90;;;;;;5090482;28;20036;-56
2021/04/17 04:12:41;;;;;;;6.97;2.65;;;0.70;99.90;;;;;;5090552;28;20062;-58
2021/04/17 04:15:08;;;;;;;7.88;3.13;;;0.70;99.90;;;;;;5090617;28;20056;-51
2021/04/17 04:17:33;;;;;;;6.80;2.65;;;0.70;99.90;;;;;;5090315;28;20571;-55
2021/04/17 04:19:59;;;;;;;5.78;2.80;;;0.70;99.90;;;;;;5088165;28;20040;-55
2021/04/17 04:22:25;;;;;;;11.38;3.10;;;0.70;99.90;;;;;;5081556;28;20107;-56
2021/04/17 04:24:50;;;;;;;5.60;2.60;;;0.70;99.90;;;;;;5091897;28;20048;-55
2021/04/17 04:27:16;;;;;;;7.25;2.90;;;0.70;99.90;;;;;;5089911;28;20047;-57
2021/04/17 04:29:42;;;;;;;8.25;2.58;;;0.70;99.90;;;;;;5090219;28;20511;-54
2021/04/17 04:32:07;;;;;;;5.72;2.85;;;0.60;99.90;;;;;;5088650;28;20040;-54
2021/04/17 04:34:33;;;;;;;6.00;2.72;;;0.70;99.90;;;;;;5077970;28;20048;-55
2021/04/17 04:36:58;;;;;;;7.43;2.95;;;0.70;99.90;;;;;;5076659;28;20032;-52
2021/04/17 04:39:24;;;;;;;7.55;3.00;;;0.70;99.90;;;;;;5089935;28;20045;-55
2021/04/17 04:41:49;;;;;;;8.65;3.25;;;0.80;99.90;;;;;;5108524;28;20039;-54
2021/04/17 04:44:15;;;;;;;6.85;2.90;;;0.90;99.90;;;;;;5101733;28;20032;-50
2021/04/17 04:46:41;;;;;;;7.00;2.88;;;0.90;99.90;;;;;;5089112;28;20113;-52
2021/04/17 04:49:06;;;;;;;6.72;3.50;;;0.90;99.90;;;;;;5089155;28;20480;-56
2021/04/17 04:51:32;;;;;;;9.10;2.72;;;0.90;99.90;;;;;;5088606;28;20072;-53
2021/04/17 04:53:57;;;;;;;7.30;3.40;;;1.20;99.90;;;;;;5089294;28;20124;-54
2021/04/17 04:56:23;;;;;;;12.80;3.92;;;1.70;99.90;;;;;;5082113;28;20056;-54
2021/04/17 04:58:50;;;;;;;6.75;3.63;;;2.30;99.90;;;;;;5069352;28;20476;-56
2021/04/17 05:01:16;;;;;;;7.28;3.45;;;2.80;99.90;;;;;;5068543;28;20091;-56
2021/04/17 05:03:41;;;;;;;9.23;3.25;;;3.30;99.10;;;;;;5069728;28;20041;-54
2021/04/17 05:06:07;;;;;;;7.55;3.28;;;3.30;98.10;;;;;;5068894;28;20029;-56
2021/04/17 05:08:32;;;;;;;;;;;3.00;98.40;;;;;;5069373;28;20048;-53
2021/04/17 05:10:58;;;;;;;5.07;2.83;;;2.90;98.70;;;;;;5069014;28;20435;-58
2021/04/17 05:13:23;;;;;;;7.13;2.97;;;2.90;99.20;;;;;;5068370;28;20062;-55
2021/04/17 05:15:49;;;;;;;;;;;2.80;99.20;;;;;;5069165;28;20036;-57
2021/04/17 05:18:15;;;;;;;4.05;2.63;;;2.70;99.90;;;;;;5069220;28;19916;-56
2021/04/17 05:20:40;;;;;;;;;;;3.20;99.60;;;;;;5079672;28;21508;-54
2021/04/17 05:23:06;;;;;;;8.70;3.30;;;3.90;98.70;;;;;;5075093;28;20395;-46
2021/04/17 05:25:31;;;;;;;;;;;4.70;96.60;;;;;;5085407;28;20036;-56
2021/04/17 05:27:57;;;;;;;15.80;4.43;;;5.40;94.80;;;;;;5085087;28;19916;-62
2021/04/17 05:30:23;;;;;;;;;;;6.10;94.20;;;;;;5081147;28;20568;-56
2021/04/17 05:32:48;;;;;;;9.38;3.78;;;6.60;92.70;;;;;;5080082;28;20363;-63
2021/04/17 05:35:14;;;;;;;;;;;7.10;92.10;;;;;;5084895;28;20462;-54
2021/04/17 05:37:39;;;;;;;10.70;4.63;;;7.30;91.50;;;;;;5087623;28;19916;-56
2021/04/17 05:40:05;;;;;;;;;;;7.70;90.60;;;;;;5081922;28;20032;-63
2021/04/17 05:42:31;;;;;;;10.30;4.10;;;7.70;90.30;;;;;;5082415;28;20486;-60
2021/04/17 05:44:56;;;;;;;;;;;7.30;90.50;;;;;;5080143;28;20094;-61
2021/04/17 05:47:22;;;;;;;9.82;4.07;;;6.80;91.70;;;;;;5086127;28;19920;-63
2021/04/17 05:49:48;;;;;;;;;;;6.40;92.20;;;;;;5087039;28;20483;-62
2021/04/17 05:52:13;;;;;;;17.02;4.60;;;5.90;92.10;;;;;;5081226;28;19916;-61
2021/04/17 05:54:38;;;;;;;;;;;5.60;93.50;;;;;;5085435;28;20040;-62
2021/04/17 05:57:04;;;;;;;10.15;5.03;;;5.30;93.90;;;;;;5082588;28;19927;-63
2021/04/17 05:59:30;;;;;;;;;;;5.00;94.80;;;;;;5086858;28;20453;-54
2021/04/17 06:01:56;;;;;;;11.23;4.60;;;4.70;95.40;;;;;;5079787;28;19924;-52
2021/04/17 06:04:21;;;;;;;;;;;4.80;95.30;;;;;;5084604;28;20043;-54
2021/04/17 06:06:47;;;;;;;7.88;4.15;;;4.80;95.90;;;;;;5080580;28;20320;-52
2021/04/17 06:09:13;;;;;;;;;;;4.60;96.10;;;;;;5081861;28;20511;-54
2021/04/17 06:11:40;;;;;;;11.32;4.82;;;4.50;96.20;;;;;;5084086;28;19923;-52
2021/04/17 06:14:06;;;;;;;11.43;4.80;;;4.60;96.30;;;;;;5082947;28;20036;-56
2021/04/17 06:16:31;;;;;;;;;;;5.20;96.00;;;;;;5081716;28;20415;-54
2021/04/17 06:18:57;;;;;;;7.95;4.00;;;5.50;95.10;;;;;;5087083;28;19930;-57
2021/04/17 06:21:22;;;;;;;7.20;3.33;;;5.80;94.10;;;;;;5077854;28;20037;-56
2021/04/17 06:23:48;;;;;;;;;;;5.80;93.80;;;;;;5081918;28;20069;-51
2021/04/17 06:26:13;;;;;;;10.75;3.30;;;5.80;93.30;;;;;;5082582;28;20040;-55
2021/04/17 06:28:39;;;;;;;;;;;6.20;93.10;;;;;;5079099;28;20502;-52
2021/04/17 06:31:04;;;;;;;7.10;2.38;;;6.40;91.60;;;;;;5070185;28;19926;-53
2021/04/17 06:33:30;;;;;;;;;;;6.50;91.20;;;;;;5085160;28;20504;-54
2021/04/17 06:35:56;;;;;;;13.95;2.55;;;6.10;88.80;;;;;;5078156;28;19920;-56
2021/04/17 06:38:21;;;;;;;;;;;5.90;89.30;;;;;;5084282;28;20055;-51
2021/04/17 06:40:50;;;;;;;11.70;2.50;;;5.60;90.20;;;;;;5082266;28;19991;-53
2021/04/17 06:43:20;;;;;;;4.88;2.20;;;5.30;90.90;;;;;;5081059;28;20166;-57
2021/04/17 06:45:47;;;;;;;6.68;2.20;;;5.20;91.10;;;;;;5080187;28;20131;-53
2021/04/17 06:48:14;;;;;;;7.65;2.40;;;5.10;91.30;;;;;;5076131;28;20047;-56
2021/04/17 06:50:39;;;;;;;9.93;2.80;;;5.10;90.90;;;;;;5079980;28;20032;-50
2021/04/17 06:53:09;;;;;;;;;;;5.00;90.70;;;;;;5079821;28;20040;-53
2021/04/17 06:55:36;;;;;;;5.82;2.00;;;5.10;91.70;;;;;;5080545;28;19920;-55
2021/04/17 06:58:03;;;;;;;7.75;2.40;;;5.00;91.00;;;;;;5072605;28;20734;-53
2021/04/17 07:00:28;;;;;;;5.30;2.05;;;5.10;91.60;;;;;;5077098;28;20431;-58
2021/04/17 07:02:54;;;;;;;;;;;5.00;91.30;;;;;;5081230;28;20051;-55
2021/04/17 07:05:20;;;;;;;5.40;2.22;;;5.00;91.20;;;;;;5086843;28;19928;-58
2021/04/17 07:07:46;;;;;;;6.63;2.55;;;4.90;91.00;;;;;;5083461;28;20042;-53
2021/04/17 07:10:14;;;;;;;;;;;5.00;91.00;;;;;;5083822;28;20119;-54
2021/04/17 07:12:41;;;;;;;6.35;2.17;;;5.20;90.50;;;;;;5085076;28;19923;-58
2021/04/17 07:15:08;;;;;;;8.20;2.42;;;5.40;90.20;;;;;;5086599;28;20040;-55
2021/04/17 07:17:35;;;;;;;7.60;2.35;;;5.30;90.90;;;;;;5086978;28;20498;-55
2021/04/17 07:20:07;;;;;;;12.82;2.60;;;5.20;90.70;;;;;;5078877;28;20037;-56
2021/04/17 07:22:38;;;;;;;5.82;2.22;;;4.90;90.50;;;;;;5082837;28;20040;-55
2021/04/17 07:25:06;;;;;;;6.93;2.60;;;4.90;91.20;;;;;;5087300;28;20412;-49
2021/04/17 07:27:42;;;;;;;9.85;2.90;;;4.90;91.30;;;;;;5077900;28;20098;-55
2021/04/17 07:30:17;;;;;;;10.27;3.13;;;4.80;91.30;;;;;;5071444;28;20626;-59
2021/04/17 07:33:02;;;;;;;6.88;2.63;;;4.70;90.70;;;;;;5066638;28;20055;-51
2021/04/17 07:35:42;;;;;;;8.50;2.22;;;4.80;92.10;;;;;;5067211;28;20588;-54
2021/04/17 07:38:21;;;;;;;7.00;2.58;;;4.80;91.50;;;;;;5066577;28;20037;-56
2021/04/17 07:41:00;;;;;;;5.82;2.45;;;4.80;91.20;;;;;;5084638;28;20049;-55
2021/04/17 07:43:45;;;;;;;5.55;2.33;;;4.90;90.80;;;;;;5082018;28;20040;-56
2021/04/17 07:46:11;;;;;;;12.45;2.70;;;4.90;92.00;;;;;;5081750;28;20194;-51
2021/04/17 07:48:36;;;;;;;;;;;5.00;91.20;;;;;;5076101;28;20123;-58
2021/04/17 07:51:04;;;;;;;6.40;2.72;;;4.90;90.50;;;;;;5076110;28;19920;-50
2021/04/17 07:53:38;;;;;;;10.02;3.20;;;4.80;91.60;;;;;;5079091;28;20048;-56
2021/04/17 07:56:25;;;;;;;6.95;2.78;;;4.90;91.50;;;;;;5079296;28;20040;-54
2021/04/17 07:58:57;;;;;;;6.53;3.10;;;5.00;91.50;;;;;;5075083;28;20032;-52
2021/04/17 08:01:23;;;;;;;15.60;3.67;;;4.90;91.30;;;;;;5078693;28;20036;-48
2021/04/17 08:03:54;;;;;;;12.63;4.03;;;4.90;92.00;;;;;;5082494;28;20559;-56
2021/04/17 08:06:20;;;;;;;8.40;3.17;;;5.00;91.20;;;;;;5079052;28;20036;-52
2021/04/17 08:08:46;;;;;;;;;;;5.00;91.40;;;;;;5081227;28;20032;-57
2021/04/17 08:11:11;;;;;;;8.52;4.03;;;5.10;90.80;;;;;;5086574;28;19998;-51
2021/04/17 08:13:38;;;;;;;;;;;5.00;91.00;;;;;;5086463;28;20040;-50
2021/04/17 08:16:05;;;;;;;10.85;3.78;;;5.00;90.80;;;;;;5079578;28;20140;-50
2021/04/17 08:18:30;;;;;;;13.23;3.97;;;5.10;91.70;;;;;;5085873;28;20123;-57
2021/04/17 08:20:58;;;;;;;;;;;5.10;91.50;;;;;;5085535;28;20111;-53
2021/04/17 08:23:24;;;;;;;9.90;4.28;;;5.10;91.40;;;;;;5086691;28;19927;-53
2021/04/17 08:25:51;;;;;;;;;;;5.10;91.50;;;;;;5085227;28;20045;-49
2021/04/17 08:28:22;;;;;;;7.97;4.28;;;5.00;91.50;;;;;;5087345;28;20342;-56
2021/04/17 08:30:48;;;;;;;12.27;5.05;;;5.10;91.40;;;;;;5090365;28;20040;-55
2021/04/17 08:33:15;;;;;;;;;;;5.10;91.50;;;;;;5090749;28;20042;-52
2021/04/17 08:35:41;;;;;;;;;;;5.10;92.00;;;;;;5090669;28;19916;-53
2021/04/17 08:38:09;;;;;;;7.65;3.28;;;5.20;91.60;;;;;;5090455;28;20423;-51
2021/04/17 08:40:38;;;;;;;6.80;3.33;;;5.10;92.40;;;;;;5094253;28;20114;-53
2021/04/17 08:43:04;;;;;;;7.20;3.00;;;5.20;91.30;;;;;;5089253;28;20040;-52
2021/04/17 08:45:30;;;;;;;9.95;3.35;;;5.10;91.30;;;;;;5089591;28;20036;-50
2021/04/17 08:47:58;;;;;;;;;;;5.10;90.90;;;;;;5090138;28;20040;-52
2021/04/17 08:50:40;;;;;;;13.52;3.03;;;5.10;91.70;;;;;;5088529;28;20312;-53
2021/04/17 08:53:18;;;;;;;9.15;3.45;;;5.20;91.50;;;;;;5089960;28;20054;-53
2021/04/17 08:55:49;;;;;;;7.47;3.15;;;5.20;91.90;;;;;;5087877;28;20488;-54
2021/04/17 08:58:17;;;;;;;10.55;3.65;;;5.10;90.80;;;;;;5070017;28;20048;-55
2021/04/17 09:01:10;;;;;;;5.65;3.20;;;5.00;90.70;;;;;;5068767;28;20125;-54
2021/04/17 09:03:44;;;;;;;5.85;2.95;;;5.00;91.50;;;;;;5061835;28;20052;-54
2021/04/17 09:06:33;;;;;;;8.07;2.90;;;5.10;91.50;;;;;;5069444;28;20048;-50
2021/04/17 09:09:17;;;;;;;10.10;3.40;;;5.10;90.90;;;;;;5069088;28;20510;-53
2021/04/17 09:11:49;;;;;;;9.98;4.65;;;5.10;91.90;;;;;;5068610;28;20089;-52
2021/04/17 09:14:28;;;;;;;7.28;3.00;;;5.20;91.10;;;;;;5068866;28;20052;-48
2021/04/17 09:17:06;;;;;;;5.68;2.55;;;5.20;90.50;;;;;;5068581;28;20113;-53
2021/04/17 09:19:38;;;;;;;14.13;3.92;;;5.30;91.10;;;;;;5071733;28;20836;-50
2021/04/17 09:22:22;;;;;;;5.60;3.08;;;5.20;91.30;;;;;;5089363;28;20035;-51
2021/04/17 09:24:48;;;;;;;9.57;3.10;;;5.10;90.70;;;;;;5088277;28;20044;-50
2021/04/17 09:27:26;;;;;;;;;;;5.20;91.30;;;;;;5089652;28;20044;-52
2021/04/17 09:30:02;;;;;;;9.60;3.40;;;5.20;91.40;;;;;;5088636;28;19920;-49
2021/04/17 09:32:36;;;;;;;10.25;4.05;;;5.10;91.20;;;;;;5088128;28;20067;-51
2021/04/17 09:35:22;;;;;;;11.85;3.30;;;5.20;92.00;;;;;;5088747;28;20040;-50
2021/04/17 09:37:58;;;;;;;11.05;3.38;;;5.20;91.40;;;;;;5088776;28;20221;-56
2021/04/17 09:40:34;;;;;;;10.30;3.30;;;5.20;92.00;;;;;;5096293;28;20100;-56
2021/04/17 09:43:00;;;;;;;8.73;3.47;;;5.20;91.60;;;;;;5108686;28;20086;-55
2021/04/17 09:45:30;;;;;;;;;;;5.30;91.00;;;;;;5107426;28;20071;-54
2021/04/17 09:47:57;;;;;;;7.10;3.22;;;5.20;91.20;;;;;;5109549;28;20418;-57
2021/04/17 09:50:24;;;;;;;15.50;3.75;;;5.20;91.80;;;;;;5094648;28;20131;-52
2021/04/17 09:52:52;;;;;;;9.23;3.25;;;5.10;91.10;;;;;;5088267;28;20036;-54
2021/04/17 09:55:18;;;;;;;9.07;3.92;;;5.30;91.30;;;;;;5088871;28;20694;-49
2021/04/17 09:57:47;;;;;;;;;;;5.40;91.50;;;;;;5069848;28;20495;-56
2021/04/17 10:00:15;;;;;;;5.47;2.33;;;5.30;90.50;;;;;;5070720;28;19980;-53
2021/04/17 10:02:42;;;;;;;11.98;3.25;;;5.10;89.90;;;;;;5088258;28;20790;-54
2021/04/17 10:05:08;;;;;;;10.45;3.00;;;5.10;92.50;;;;;;5088722;28;20123;-53
2021/04/17 10:07:45;;;;;;;7.95;3.08;;;4.80;93.80;;;;;;5088743;28;20032;-49
2021/04/17 10:10:11;;;;;;;8.00;3.47;;;4.40;95.60;;;;;;5088427;28;20119;-54
2021/04/17 10:12:51;;;;;;;11.55;3.30;;;4.20;97.70;;;;;;5087311;28;20141;-57
2021/04/17 10:15:19;;;;;;;8.40;3.28;;;4.20;97.90;;;;;;5087805;28;20043;-53
2021/04/17 10:17:45;;;;;;;14.02;3.67;;;4.30;98.00;;;;;;5088090;28;20032;-50
2021/04/17 10:20:12;;;;;;;12.57;4.05;;;4.30;98.40;;;;;;5075878;28;20444;-53
2021/04/17 10:22:38;;;;;;;10.63;4.25;;;4.30;99.30;;;;;;5079407;28;20040;-54
2021/04/17 10:25:08;;;;;;;7.70;3.45;;;4.40;97.30;;;;;;5087851;28;20146;-51
2021/04/17 10:27:36;;;;;;;7.38;3.20;;;4.50;98.10;;;;;;5087404;28;20047;-54
2021/04/17 10:30:15;;;;;;;6.88;3.20;;;4.60;98.20;;;;;;5088211;28;20139;-56
2021/04/17 10:32:40;;;;;;;10.70;3.72;;;4.80;98.40;;;;;;5086796;28;20036;-55
2021/04/17 10:35:08;;;;;;;;;;;4.90;99.10;;;;;;5088023;28;20097;-48
2021/04/17 10:37:45;;;;;;;7.22;3.40;;;4.90;97.80;;;;;;5087849;28;19951;-50
2021/04/17 10:40:13;;;;;;;11.38;4.07;;;4.90;98.30;;;;;;5088657;28;20063;-49
2021/04/17 10:42:47;;;;;;;11.13;3.05;;;4.80;98.90;;;;;;5107920;28;20566;-56
2021/04/17 10:45:19;;;;;;;11.05;3.97;;;5.00;99.30;;;;;;5107084;28;20047;-50
2021/04/17 10:48:06;;;;;;;5.32;2.92;;;5.30;99.80;;;;;;5107961;28;20487;-52
2021/04/17 10:51:00;;;;;;;8.75;3.50;;;5.60;99.00;;;;;;5091850;28;20052;-50
2021/04/17 10:53:31;;;;;;;11.02;3.20;;;5.80;97.10;;;;;;5086681;28;20051;-53
2021/04/17 10:56:21;;;;;;;10.52;4.85;;;5.90;98.20;;;;;;5082880;28;20812;-55
2021/04/17 10:58:59;;;;;;;9.00;3.58;;;6.00;97.40;;;;;;5066623;28;20127;-55
2021/04/17 11:01:28;;;;;;;9.32;3.40;;;6.00;96.50;;;;;;5065169;28;20061;-53
2021/04/17 11:03:59;;;;;;;9.75;3.75;;;5.90;95.00;;;;;;5065997;28;20786;-54
2021/04/17 11:06:29;;;;;;;5.18;2.92;;;5.80;94.20;;;;;;5066857;28;20076;-51
2021/04/17 11:09:18;;;;;;;8.68;2.78;;;5.70;94.20;;;;;;5065869;28;20047;-52
2021/04/17 11:11:56;;;;;;;5.35;2.20;;;5.40;91.30;;;;;;5066844;28;20124;-55
2021/04/17 11:14:25;;;;;;;5.10;2.78;;;5.40;92.20;;;;;;5065523;28;20120;-52
2021/04/17 11:16:53;;;;;;;5.57;2.38;;;5.40;92.70;;;;;;5066161;28;20051;-49
2021/04/17 11:19:30;;;;;;;4.65;2.25;;;5.50;93.10;;;;;;5067709;28;20508;-50
2021/04/17 11:22:19;;;;;;;11.02;3.20;;;5.50;92.60;;;;;;5086230;28;20036;-54
2021/04/17 11:24:57;;;;;;;7.43;2.90;;;5.60;94.60;;;;;;5085995;28;20047;-56
2021/04/17 11:27:26;;;;;;;5.60;2.40;;;5.90;93.00;;;;;;5086833;28;20186;-55
2021/04/17 11:29:52;;;;;;;6.47;2.67;;;6.00;91.60;;;;;;5086257;28;20641;-52
2021/04/17 11:32:18;;;;;;;;;;;6.00;92.70;;;;;;5086262;28;20051;-53
2021/04/17 11:34:47;;;;;;;9.85;1.95;;;6.00;91.30;;;;;;5086739;28;19919;-54
2021/04/17 11:37:14;;;;;;;10.02;4.18;;;6.10;91.40;;;;;;5086117;28;20496;-51
2021/04/17 11:39:40;;;;;;;9.35;3.22;;;6.30;92.20;;;;;;5085705;28;20047;-53
2021/04/17 11:42:06;;;;;;;;;;;6.40;92.00;;;;;;5090705;28;20044;-57
2021/04/17 11:44:31;;;;;;;10.05;2.88;;;6.50;91.70;;;;;;5086172;28;20422;-56
2021/04/17 11:46:57;;;;;;;;;;;6.30;90.30;;;;;;5086090;28;20036;-53
2021/04/17 11:49:23;;;;;;;7.38;4.28;;;6.30;91.10;;;;;;5084238;28;19920;-53
2021/04/17 11:51:48;;;;;;;;;;;6.50;92.30;;;;;;5085339;28;20058;-53
2021/04/17 11:54:14;;;;;;;8.80;3.33;;;6.60;91.70;;;;;;5086523;28;19916;-54
2021/04/17 11:56:40;;;;;;;12.27;3.22;;;6.90;90.50;;;;;;5077580;28;20384;-52
2021/04/17 11:59:05;;;;;;;;;;;7.00;90.10;;;;;;5084719;28;20036;-54
2021/04/17 12:01:31;;;;;;;5.45;2.67;;;6.70;86.70;;;;;;5084972;28;19947;-49
2021/04/17 12:03:56;;;;;;;;;;;6.80;88.60;;;;;;5089234;28;20503;-51
2021/04/17 12:06:28;;;;;;;7.80;2.88;;;7.00;90.20;;;;;;5089846;28;19919;-52
2021/04/17 12:08:53;;;;;;;7.82;3.22;;;7.10;86.10;;;;;;5090203;28;20570;-52
2021/04/17 12:11:19;;;;;;;;;;;7.20;86.40;;;;;;5089663;28;20029;-51
2021/04/17 12:13:44;;;;;;;9.07;3.65;;;7.10;85.50;;;;;;5087865;28;19927;-55
2021/04/17 12:16:10;;;;;;;;;;;7.10;89.30;;;;;;5089578;28;20035;-54
2021/04/17 12:18:35;;;;;;;16.65;3.90;;;7.40;90.10;;;;;;5089216;28;19916;-56
2021/04/17 12:21:01;;;;;;;8.43;3.20;;;7.40;87.10;;;;;;5084607;28;20861;-49
2021/04/17 12:23:26;;;;;;;;;;;7.30;84.90;;;;;;5090191;28;20036;-58
2021/04/17 12:25:52;;;;;;;5.63;3.03;;;7.30;84.40;;;;;;5088635;28;20402;-56
2021/04/17 12:28:17;;;;;;;;;;;7.50;85.80;;;;;;5089871;28;20047;-54
2021/04/17 12:30:44;;;;;;;7.05;3.30;;;7.40;80.50;;;;;;5089362;28;20353;-56
2021/04/17 12:33:10;;;;;;;8.48;3.28;;;7.20;84.80;;;;;;5089296;28;20496;-50
2021/04/17 12:35:37;;;;;;;10.98;4.32;;;7.30;85.40;;;;;;5088270;28;20082;-52
2021/04/17 12:38:03;;;;;;;12.88;3.15;;;7.50;86.20;;;;;;5083427;28;20040;-56
2021/04/17 12:40:29;;;;;;;;;;;7.60;85.70;;;;;;5084895;28;20373;-51
2021/04/17 12:42:54;;;;;;;6.55;2.90;;;7.70;86.40;;;;;;5109141;28;19915;-52
2021/04/17 12:45:21;;;;;;;;;;;7.80;84.60;;;;;;5109032;28;20447;-52
2021/04/17 12:47:46;;;;;;;11.60;2.87;;;7.80;83.80;;;;;;5109317;28;19920;-50
2021/04/17 12:50:12;;;;;;;;;;;7.80;80.70;;;;;;5097525;28;20089;-54
2021/04/17 12:52:38;;;;;;;5.40;2.28;;;7.80;84.40;;;;;;5088327;28;19935;-55
2021/04/17 12:55:04;;;;;;;;;;;7.80;80.80;;;;;;5089519;28;20044;-53
2021/04/17 12:57:30;;;;;;;8.15;3.03;;;7.80;81.70;;;;;;5072437;28;20348;-55
2021/04/17 12:59:55;;;;;;;;;;;7.80;81.30;;;;;;5068528;28;20528;-52
2021/04/17 13:02:20;;;;;;;6.90;3.00;;;7.70;82.40;;;;;;5067939;28;20315;-55
2021/04/17 13:04:46;;;;;;;;;;;7.50;84.00;;;;;;5068906;28;20086;-52
2021/04/17 13:07:11;;;;;;;11.27;3.00;;;7.60;84.30;;;;;;5068621;28;19916;-55
2021/04/17 13:09:37;;;;;;;;;;;7.60;82.10;;;;;;5068876;28;20040;-51
2021/04/17 13:12:03;;;;;;;10.13;2.70;;;7.60;85.30;;;;;;5068119;28;20021;-55
2021/04/17 13:14:28;;;;;;;;;;;7.60;82.70;;;;;;5067642;28;20526;-53
2021/04/17 13:16:54;;;;;;;11.98;4.00;;;7.70;83.50;;;;;;5082076;28;19916;-56